Time;durP1;ratioP1;P1;durP2;ratioP2;P2;SDS_P1;SDS_P2;PMS_P1;PMS_P2;Temp;Humidity;BMP_temperature;BMP_pressure;BME280_temperature;BME280_humidity;BME280_pressure;Samples;Min_cycle;Max_cycle;Signal;HPM_P1;HPM_P2
2022/03/12 00:00:56;;;;;;;60.17;25.27;;;;;;;-3.64;55.73;102543.86;1712337;82;27507;-76
2022/03/12 00:03:22;;;;;;;59.63;27.27;;;;;;;-3.63;55.69;102542.08;1720192;82;25929;-77
2022/03/12 00:05:55;;;;;;;61.50;25.37;;;;;;;-3.67;55.73;102547.88;1719879;82;25816;-76
2022/03/12 00:08:40;;;;;;;67.00;28.67;;;;;;;-3.71;55.66;102539.72;1713373;82;26151;-77
2022/03/12 00:10:53;;;;;;;76.30;31.50;;;;;;;-3.72;55.67;102538.47;1711864;82;27968;-76
2022/03/12 00:13:20;;;;;;;87.05;33.83;;;;;;;-3.76;55.74;102541.61;1715957;82;27434;-76
2022/03/12 00:15:50;;;;;;;66.77;29.00;;;;;;;-3.78;55.78;102535.57;1713257;82;26136;-76
2022/03/12 00:18:19;;;;;;;61.55;27.25;;;;;;;-3.78;56.18;102537.33;1713651;81;25860;-76
2022/03/12 00:20:48;;;;;;;61.63;28.05;;;;;;;-3.81;56.43;102544.85;1716283;82;26690;-76
2022/03/12 00:23:17;;;;;;;63.15;28.07;;;;;;;-3.85;56.40;102533.20;1714929;82;26302;-76
2022/03/12 00:25:44;;;;;;;75.35;29.40;;;;;;;-3.87;56.51;102537.64;1713551;82;27411;-76
2022/03/12 00:28:12;;;;;;;87.47;34.30;;;;;;;-3.92;56.54;102535.16;1715117;82;25717;-76
2022/03/12 00:30:42;;;;;;;103.62;36.93;;;;;;;-3.98;56.60;102536.19;1716607;82;25817;-76
2022/03/12 00:33:08;;;;;;;96.02;36.65;;;;;;;-4.03;56.74;102543.34;1713043;82;26536;-76
2022/03/12 00:35:35;;;;;;;78.67;31.68;;;;;;;-4.09;56.93;102533.07;1711934;82;26379;-76
2022/03/12 00:38:01;;;;;;;80.10;30.95;;;;;;;-4.12;57.20;102528.36;1690271;83;28254;-76
2022/03/12 00:40:27;;;;;;;77.90;31.12;;;;;;;-4.16;57.53;102526.30;1677586;84;25764;-76
2022/03/12 00:42:53;;;;;;;81.20;31.00;;;;;;;-4.18;57.82;102528.11;1680461;84;25973;-75
2022/03/12 00:45:20;;;;;;;72.32;30.68;;;;;;;-4.24;57.76;102520.89;1682601;84;25820;-76
2022/03/12 00:47:48;;;;;;;80.40;33.80;;;;;;;-4.27;57.76;102520.97;1707240;83;25352;-76
2022/03/12 00:50:14;;;;;;;85.38;33.63;;;;;;;-4.29;57.87;102515.80;1680436;84;27591;-75
2022/03/12 00:52:43;;;;;;;87.55;31.97;;;;;;;-4.30;58.10;102520.61;1698695;83;25777;-76
2022/03/12 00:55:09;;;;;;;90.38;36.17;;;;;;;-4.29;58.20;102521.47;1682306;84;25900;-76
2022/03/12 00:57:35;;;;;;;86.25;34.03;;;;;;;-4.33;58.05;102508.94;1681179;84;26325;-76
2022/03/12 01:00:05;;;;;;;86.50;35.60;;;;;;;-4.37;57.99;102506.02;1685388;84;25540;-75
2022/03/12 01:02:32;;;;;;;88.95;37.28;;;;;;;-4.40;57.82;102500.86;1681614;84;27433;-76
2022/03/12 01:04:58;;;;;;;85.28;36.85;;;;;;;-4.41;57.69;102496.55;1673525;85;26582;-76
2022/03/12 01:07:24;;;;;;;91.47;37.85;;;;;;;-4.38;57.76;102499.06;1675214;85;25347;-77
2022/03/12 01:09:53;;;;;;;86.80;34.45;;;;;;;-4.36;57.83;102501.17;1674892;85;25782;-76
2022/03/12 01:12:20;;;;;;;94.25;38.00;;;;;;;-4.37;57.79;102498.61;1685126;84;25558;-76
2022/03/12 01:14:46;;;;;;;90.90;42.93;;;;;;;-4.39;57.72;102497.36;1675652;84;28241;-76
2022/03/12 01:17:12;;;;;;;99.77;43.08;;;;;;;-4.40;57.86;102493.02;1680263;84;25920;-77
2022/03/12 01:19:38;;;;;;;99.72;41.37;;;;;;;-4.42;57.91;102491.34;1679955;84;26641;-76
2022/03/12 01:22:06;;;;;;;78.78;36.88;;;;;;;-4.42;57.94;102496.58;1681373;84;26156;-76
2022/03/12 01:24:34;;;;;;;72.82;33.35;;;;;;;-4.44;58.18;102496.62;1679876;84;25730;-76
2022/03/12 01:27:00;;;;;;;72.53;33.25;;;;;;;-4.43;58.42;102498.80;1681712;84;28256;-76
2022/03/12 01:29:27;;;;;;;66.92;31.73;;;;;;;-4.45;58.55;102499.30;1682471;84;25888;-76
2022/03/12 01:31:53;;;;;;;68.57;34.30;;;;;;;-4.56;58.55;102495.70;1682003;84;25765;-76
2022/03/12 01:34:21;;;;;;;75.25;34.23;;;;;;;-4.64;58.64;102504.66;1691722;84;26274;-77
2022/03/12 01:36:48;;;;;;;75.17;32.42;;;;;;;-4.68;59.03;102505.17;1724165;81;25868;-77
2022/03/12 01:39:14;;;;;;;72.55;31.62;;;;;;;-4.66;59.39;102501.23;1714166;83;27633;-76
2022/03/12 01:41:43;;;;;;;77.85;34.40;;;;;;;-4.67;59.84;102489.91;1714175;83;25788;-76
2022/03/12 01:44:14;;;;;;;75.40;33.18;;;;;;;-4.73;60.00;102498.77;1718105;83;25817;-76
2022/03/12 01:46:47;;;;;;;79.25;35.98;;;;;;;-4.78;60.09;102503.29;1711213;83;25930;-76
2022/03/12 01:49:19;;;;;;;81.92;34.92;;;;;;;-4.80;60.30;102500.31;1713172;83;26472;-76
2022/03/12 01:51:49;;;;;;;71.80;32.23;;;;;;;-4.80;60.45;102505.53;1718570;83;27434;-77
2022/03/12 01:54:22;;;;;;;66.90;30.57;;;;;;;-4.86;60.52;102498.73;1714819;83;25959;-76
2022/03/12 01:56:51;;;;;;;69.80;31.62;;;;;;;-4.88;60.68;102498.36;1723243;82;25757;-76
2022/03/12 01:59:19;;;;;;;63.52;29.63;;;;;;;-4.89;60.79;102497.50;1715344;83;25742;-76
2022/03/12 02:01:51;;;;;;;64.15;28.98;;;;;;;-4.89;61.12;102490.97;1725878;82;25745;-76
2022/03/12 02:04:14;;;;;;;67.85;30.97;;;;;;;-4.92;61.01;102488.42;1717215;83;27483;-76
2022/03/12 02:06:45;;;;;;;64.32;29.90;;;;;;;-4.97;60.73;102491.64;1711045;83;25912;-76
2022/03/12 02:09:14;;;;;;;67.55;32.25;;;;;;;-4.96;60.66;102488.58;1713532;83;26453;-76
2022/03/12 02:11:42;;;;;;;65.83;31.75;;;;;;;-5.00;60.58;102489.53;1751068;80;25755;-76
2022/03/12 02:14:12;;;;;;;65.37;29.30;;;;;;;-5.03;60.56;102490.51;1758600;80;25719;-76
2022/03/12 02:16:47;;;;;;;70.57;29.98;;;;;;;-5.03;60.92;102487.03;1715728;83;28288;-76
2022/03/12 02:19:13;;;;;;;70.80;30.68;;;;;;;-5.04;61.16;102500.53;1705978;83;26475;-76
2022/03/12 02:21:58;;;;;;;69.67;30.32;;;;;;;-5.09;61.23;102494.56;1750506;80;25766;-76
2022/03/12 02:24:28;;;;;;;65.67;32.40;;;;;;;-5.10;61.36;102492.00;1721317;80;25755;-76
2022/03/12 02:26:58;;;;;;;74.27;30.77;;;;;;;-5.17;61.40;102494.36;1713849;83;26836;-76
2022/03/12 02:29:25;;;;;;;74.10;31.27;;;;;;;-5.25;61.40;102493.27;1746079;80;27450;-76
2022/03/12 02:31:58;;;;;;;66.10;31.68;;;;;;;-5.28;61.48;102492.52;1707988;83;25907;-76
2022/03/12 02:34:38;;;;;;;72.82;32.50;;;;;;;-5.32;61.67;102490.87;1717349;83;25773;-76
2022/03/12 02:37:05;;;;;;;81.35;36.23;;;;;;;-5.36;61.74;102480.08;1712885;83;26539;-76
2022/03/12 02:39:34;;;;;;;78.70;36.68;;;;;;;-5.37;61.75;102483.60;1716102;83;25997;-76
2022/03/12 02:42:00;;;;;;;86.97;38.53;;;;;;;-5.39;61.61;102480.17;1711311;83;27471;-76
2022/03/12 02:44:28;;;;;;;75.47;36.40;;;;;;;-5.40;61.59;102481.06;1711938;83;25694;-76
2022/03/12 02:47:18;;;;;;;69.55;35.52;;;;;;;-5.40;61.90;102482.36;1712536;83;25806;-75
2022/03/12 02:49:53;;;;;;;71.07;33.40;;;;;;;-5.40;62.14;102481.06;1716093;83;25956;-75
2022/03/12 02:52:22;;;;;;;68.83;32.70;;;;;;;-5.40;62.32;102479.75;1712960;82;25994;-76
2022/03/12 02:54:50;;;;;;;68.75;33.92;;;;;;;-5.42;62.31;102472.41;1710300;83;28283;-76
2022/03/12 02:57:18;;;;;;;68.87;35.38;;;;;;;-5.43;62.31;102472.02;1729420;82;25814;-76
2022/03/12 02:59:48;;;;;;;76.60;38.30;;;;;;;-5.42;62.72;102469.80;1715100;83;25742;-76
2022/03/12 03:02:13;;;;;;;74.82;39.33;;;;;;;-5.40;62.78;102475.83;1718148;83;25951;-76
2022/03/12 03:04:40;;;;;;;78.10;41.58;;;;;;;-5.40;62.99;102471.48;1711560;83;25790;-76
2022/03/12 03:07:10;;;;;;;78.62;39.63;;;;;;;-5.39;63.22;102478.43;1713587;82;27503;-76
2022/03/12 03:09:38;;;;;;;73.50;37.88;;;;;;;-5.39;63.13;102478.43;1715791;83;25763;-76
2022/03/12 03:12:09;;;;;;;72.78;38.00;;;;;;;-5.42;63.10;102482.41;1714254;82;26460;-76
2022/03/12 03:14:43;;;;;;;84.22;42.48;;;;;;;-5.41;63.12;102481.53;1719078;83;25975;-76
2022/03/12 03:17:05;;;;;;;74.35;43.98;;;;;;;-5.41;63.20;102475.44;1712592;83;25875;-76
2022/03/12 03:19:34;;;;;;;88.47;45.78;;;;;;;-5.45;63.30;102474.64;1714592;83;27507;-76
2022/03/12 03:22:00;;;;;;;87.55;46.68;;;;;;;-5.46;63.49;102476.86;1717448;83;25813;-76
2022/03/12 03:24:27;;;;;;;79.30;44.03;;;;;;;-5.47;63.44;102481.66;1718140;82;26059;-76
2022/03/12 03:26:59;;;;;;;82.55;40.80;;;;;;;-5.50;63.42;102477.41;1718867;83;25746;-76
2022/03/12 03:29:29;;;;;;;67.45;34.80;;;;;;;-5.50;63.53;102473.92;1714252;82;26446;-76
2022/03/12 03:31:57;;;;;;;66.80;33.83;;;;;;;-5.53;63.82;102473.55;1715846;83;28234;-76
2022/03/12 03:34:24;;;;;;;61.00;31.52;;;;;;;-5.53;63.99;102473.99;1714257;83;25956;-76
2022/03/12 03:36:51;;;;;;;65.70;31.93;;;;;;;-5.58;63.88;102471.97;1715664;82;25833;-76
2022/03/12 03:39:18;;;;;;;66.35;31.73;;;;;;;-5.66;63.80;102460.40;1715515;83;25824;-76
2022/03/12 03:41:45;;;;;;;71.92;33.70;;;;;;;-5.68;63.62;102454.36;1719309;83;25998;-77
2022/03/12 03:44:15;;;;;;;78.15;36.40;;;;;;;-5.65;63.67;102453.44;1714427;83;28373;-76
2022/03/12 03:46:41;;;;;;;78.97;38.88;;;;;;;-5.64;63.84;102455.12;1728555;80;26512;-76
2022/03/12 03:49:07;;;;;;;71.53;37.40;;;;;;;-5.61;63.89;102455.93;1708362;83;26040;-76
2022/03/12 03:51:41;;;;;;;73.45;37.17;;;;;;;-5.61;63.89;102454.63;1717097;83;25952;-76
2022/03/12 03:54:08;;;;;;;75.77;38.03;;;;;;;-5.62;63.58;102451.59;1714369;82;26496;-76
2022/03/12 03:56:34;;;;;;;77.10;36.45;;;;;;;-5.65;63.77;102452.12;1711711;83;28088;-76
2022/03/12 03:59:00;;;;;;;70.15;36.15;;;;;;;-5.67;63.90;102447.40;1713782;83;26407;-76
2022/03/12 04:01:26;;;;;;;74.15;36.48;;;;;;;-5.71;63.87;102443.98;1712946;83;26054;-76
2022/03/12 04:03:53;;;;;;;75.92;36.53;;;;;;;-5.74;63.84;102441.47;1715595;83;25747;-76
2022/03/12 04:06:22;;;;;;;64.15;31.62;;;;;;;-5.77;63.76;102448.06;1710644;83;26575;-76
2022/03/12 04:08:50;;;;;;;75.17;31.07;;;;;;;-5.81;64.19;102452.09;1713661;83;27468;-76
2022/03/12 04:11:19;;;;;;;57.95;30.95;;;;;;;-5.83;64.33;102447.36;1715257;82;25956;-76
2022/03/12 04:13:47;;;;;;;70.75;32.83;;;;;;;-5.85;64.51;102452.66;1713441;83;25836;-76
2022/03/12 04:16:15;;;;;;;67.70;31.23;;;;;;;-5.84;64.75;102445.25;1714077;83;26239;-75
2022/03/12 04:18:45;;;;;;;74.62;31.77;;;;;;;-5.84;64.95;102435.25;1716964;82;25776;-76
2022/03/12 04:21:10;;;;;;;66.85;30.40;;;;;;;-5.86;64.88;102436.58;1712225;83;27451;-76
2022/03/12 04:23:36;;;;;;;70.75;32.78;;;;;;;-5.90;64.79;102440.63;1714691;83;25881;-76
2022/03/12 04:26:03;;;;;;;64.17;31.17;;;;;;;-5.92;65.04;102434.13;1717684;83;25779;-77
2022/03/12 04:28:32;;;;;;;69.82;32.58;;;;;;;-5.93;65.08;102431.56;1712907;83;26570;-75
2022/03/12 04:31:01;;;;;;;66.07;32.95;;;;;;;-5.95;65.26;102440.73;1716945;83;25952;-76
2022/03/12 04:33:29;;;;;;;68.07;31.55;;;;;;;-5.99;65.39;102439.10;1717680;82;27466;-75
2022/03/12 04:35:57;;;;;;;71.77;34.55;;;;;;;-6.02;65.53;102436.55;1717133;82;25776;-76
2022/03/12 04:38:25;;;;;;;64.55;31.37;;;;;;;-6.05;65.52;102437.09;1702719;83;26507;-76
2022/03/12 04:40:57;;;;;;;69.75;31.23;;;;;;;-6.07;65.65;102437.10;1699037;83;25921;-76
2022/03/12 04:43:24;;;;;;;68.30;32.55;;;;;;;-6.11;65.86;102431.98;1699226;83;25782;-76
2022/03/12 04:45:50;;;;;;;69.72;31.97;;;;;;;-6.13;65.79;102435.95;1698962;83;27458;-76
2022/03/12 04:48:23;;;;;;;61.85;28.95;;;;;;;-6.16;65.67;102449.08;1703018;83;25798;-76
2022/03/12 04:50:51;;;;;;;65.92;29.87;;;;;;;-6.24;65.59;102447.07;1700831;83;25777;-76
2022/03/12 04:53:19;;;;;;;54.05;28.02;;;;;;;-6.36;65.89;102446.92;1703790;83;25636;-76
2022/03/12 04:55:46;;;;;;;56.53;26.25;;;;;;;-6.45;66.17;102451.04;1732806;81;25803;-75
2022/03/12 04:58:13;;;;;;;67.15;28.20;;;;;;;-6.52;66.41;102451.22;1741324;81;27415;-76
2022/03/12 05:00:41;;;;;;;67.22;29.32;;;;;;;-6.58;66.37;102446.12;1733521;81;25810;-75
2022/03/12 05:03:11;;;;;;;63.50;28.30;;;;;;;-6.59;66.53;102445.28;1717464;83;26012;-76
2022/03/12 05:05:42;;;;;;;74.70;32.63;;;;;;;-6.58;66.62;102443.08;1722445;83;25826;-76
2022/03/12 05:08:10;;;;;;;;;;;;;;;-6.56;66.69;102441.28;1688321;84;25960;-76
2022/03/12 05:10:37;;;;;;;75.55;31.05;;;;;;;-6.56;66.88;102444.33;1700248;83;27608;-76
2022/03/12 05:13:04;;;;;;;71.80;32.80;;;;;;;-6.66;66.83;102444.13;1704336;83;26636;-76
2022/03/12 05:15:40;;;;;;;74.67;32.33;;;;;;;-6.67;66.95;102437.22;1739841;81;25307;-75
2022/03/12 05:18:12;;;;;;;68.33;29.57;;;;;;;-6.65;67.12;102432.83;1699481;83;25960;-76
2022/03/12 05:20:46;;;;;;;63.90;31.35;;;;;;;-6.64;66.97;102429.31;1691858;84;26101;-76
2022/03/12 05:23:13;;;;;;;69.80;32.48;;;;;;;-6.61;66.84;102435.78;1705384;83;27526;-75
2022/03/12 05:25:41;;;;;;;71.80;31.20;;;;;;;-6.60;66.83;102427.05;1708686;83;26217;-76
2022/03/12 05:28:15;;;;;;;69.05;31.65;;;;;;;-6.58;66.78;102420.92;1704763;83;25991;-75
2022/03/12 05:30:46;;;;;;;63.30;31.70;;;;;;;-6.56;66.67;102423.05;1700835;83;25910;-76
2022/03/12 05:33:14;;;;;;;69.30;31.23;;;;;;;-6.53;66.57;102424.73;1708621;83;25753;-76
2022/03/12 05:35:41;;;;;;;68.37;31.97;;;;;;;-6.50;66.54;102425.98;1710894;83;28217;-76
2022/03/12 05:38:13;;;;;;;69.90;31.73;;;;;;;-6.47;66.51;102423.28;1721001;81;25956;-75
2022/03/12 05:40:41;;;;;;;72.75;33.90;;;;;;;-6.44;66.50;102424.09;1743350;81;25808;-76
2022/03/12 05:43:12;;;;;;;73.10;33.85;;;;;;;-6.39;66.78;102433.95;1744027;81;25848;-76
2022/03/12 05:45:38;;;;;;;;;;;;;;;-6.37;67.18;102437.81;1748256;81;25801;-76
2022/03/12 05:48:08;;;;;;;73.45;34.73;;;;;;;-6.34;67.44;102438.62;1745568;81;27471;-76
2022/03/12 05:50:37;;;;;;;81.63;36.20;;;;;;;-6.33;67.57;102440.32;1712923;83;25858;-76
2022/03/12 05:53:08;;;;;;;70.92;36.38;;;;;;;-6.31;67.67;102448.13;1716051;82;25285;-75
2022/03/12 05:55:36;;;;;;;80.05;39.10;;;;;;;-6.30;67.82;102446.78;1716833;82;26242;-76
2022/03/12 05:57:59;;;;;;;76.77;39.53;;;;;;;-6.26;67.96;102446.25;1718747;82;25933;-75
2022/03/12 06:00:25;;;;;;;84.97;44.15;;;;;;;-6.21;68.00;102440.50;1716918;83;27442;-76
2022/03/12 06:02:55;;;;;;;89.67;44.30;;;;;;;-6.17;68.17;102438.22;1714777;82;25991;-76
2022/03/12 06:05:24;;;;;;;80.47;38.30;;;;;;;-6.13;68.37;102442.47;1720505;82;25849;-76
2022/03/12 06:07:52;;;;;;;81.60;37.53;;;;;;;-6.06;68.49;102440.58;1714662;82;26540;-76
2022/03/12 06:10:37;;;;;;;73.60;34.98;;;;;;;-6.04;68.57;102443.56;1714230;82;26115;-75
2022/03/12 06:13:01;;;;;;;78.28;34.03;;;;;;;-6.01;68.75;102451.33;1707550;83;27480;-75
2022/03/12 06:15:29;;;;;;;78.75;34.63;;;;;;;-5.99;68.95;102452.15;1710262;83;25864;-76
2022/03/12 06:17:55;;;;;;;57.62;30.88;;;;;;;-5.96;69.27;102451.19;1707588;81;26491;-76
2022/03/12 06:20:23;;;;;;;74.42;34.43;;;;;;;-5.94;69.38;102455.48;1717539;83;26047;-76
2022/03/12 06:22:53;;;;;;;82.10;35.35;;;;;;;-5.87;69.45;102460.97;1707284;83;25852;-76
2022/03/12 06:25:22;;;;;;;76.25;35.30;;;;;;;-5.78;69.42;102450.72;1710304;83;27441;-76
2022/03/12 06:27:56;;;;;;;79.35;36.15;;;;;;;-5.68;69.55;102450.45;1715325;83;26246;-76
2022/03/12 06:30:26;;;;;;;79.53;37.00;;;;;;;-5.57;69.72;102453.65;1711375;83;25965;-76
2022/03/12 06:32:57;;;;;;;84.22;40.83;;;;;;;-5.45;69.67;102443.78;1729316;82;25889;-76
2022/03/12 06:35:26;;;;;;;92.80;43.85;;;;;;;-5.32;69.75;102445.17;1715135;83;25789;-77
2022/03/12 06:37:53;;;;;;;87.62;41.80;;;;;;;-5.19;69.91;102438.70;1711276;82;27527;-77
2022/03/12 06:40:20;;;;;;;96.65;44.40;;;;;;;-5.05;70.33;102443.11;1708551;83;26562;-76
2022/03/12 06:42:54;;;;;;;95.70;44.58;;;;;;;-4.92;70.94;102439.25;1706856;83;25960;-76
2022/03/12 06:45:21;;;;;;;87.08;40.48;;;;;;;-4.76;71.00;102433.97;1705923;83;25730;-76
2022/03/12 06:47:48;;;;;;;86.70;41.25;;;;;;;-4.62;70.35;102434.44;1704655;83;25519;-76
2022/03/12 06:50:21;;;;;;;93.75;42.50;;;;;;;-4.47;70.32;102437.03;1708545;83;27512;-77
2022/03/12 06:52:50;;;;;;;84.37;39.63;;;;;;;-4.34;70.55;102432.67;1706844;83;25729;-76
2022/03/12 06:55:23;;;;;;;75.17;35.95;;;;;;;-4.17;70.34;102438.70;1705686;82;26455;-76
2022/03/12 06:57:52;;;;;;;74.70;33.60;;;;;;;-4.02;69.93;102431.20;1705956;82;26323;-76
2022/03/12 07:00:31;;;;;;;73.75;34.23;;;;;;;-3.86;69.45;102428.94;1705946;83;25946;-76
2022/03/12 07:02:57;;;;;;;78.12;34.90;;;;;;;-3.74;68.97;102425.91;1705866;82;28409;-76
2022/03/12 07:05:25;;;;;;;66.28;29.70;;;;;;;-3.64;68.25;102416.85;1708150;82;26452;-76
2022/03/12 07:07:52;;;;;;;61.50;29.32;;;;;;;-3.55;67.73;102424.85;1708819;83;25747;-77
2022/03/12 07:10:18;;;;;;;63.90;28.15;;;;;;;-3.46;67.73;102425.38;1708906;83;26231;-76
2022/03/12 07:12:46;;;;;;;60.88;30.12;;;;;;;-3.34;67.41;102425.41;1708319;83;25828;-77
2022/03/12 07:15:14;;;;;;;66.17;28.55;;;;;;;-3.25;67.39;102425.09;1707498;82;27469;-76
2022/03/12 07:17:42;;;;;;;63.17;28.27;;;;;;;-3.14;67.38;102430.78;1708116;83;25775;-75
2022/03/12 07:20:10;;;;;;;65.10;30.30;;;;;;;-3.03;66.90;102435.62;1705728;83;26089;-76
2022/03/12 07:22:38;;;;;;;62.58;30.30;;;;;;;-2.92;66.69;102436.09;1707933;82;25939;-76
2022/03/12 07:25:07;;;;;;;67.32;29.87;;;;;;;-2.79;66.58;102437.36;1707802;83;25731;-77
2022/03/12 07:27:33;;;;;;;64.70;28.10;;;;;;;-2.63;66.37;102441.14;1703583;83;27441;-76
2022/03/12 07:30:01;;;;;;;68.10;31.27;;;;;;;-2.50;65.97;102431.41;1706814;83;25888;-77
2022/03/12 07:32:31;;;;;;;62.48;28.85;;;;;;;-2.36;66.20;102433.50;1703652;83;25962;-76
2022/03/12 07:34:58;;;;;;;70.30;31.25;;;;;;;-2.21;66.11;102430.28;1695178;83;25755;-76
2022/03/12 07:37:24;;;;;;;65.52;28.75;;;;;;;-2.06;65.86;102432.30;1695731;83;25909;-77
2022/03/12 07:39:50;;;;;;;80.05;36.13;;;;;;;-1.92;65.24;102433.03;1711020;81;27462;-76
2022/03/12 07:42:16;;;;;;;101.05;45.92;;;;;;;-1.79;64.82;102432.47;1704719;83;26155;-77
2022/03/12 07:44:43;;;;;;;68.92;31.40;;;;;;;-1.67;64.68;102435.89;1702676;83;26276;-77
2022/03/12 07:47:09;;;;;;;63.83;28.65;;;;;;;-1.61;64.19;102433.48;1703681;83;26461;-77
2022/03/12 07:49:38;;;;;;;61.25;29.63;;;;;;;-1.46;63.94;102438.55;1712152;83;25795;-76
2022/03/12 07:52:08;;;;;;;75.00;36.95;;;;;;;-1.34;63.88;102443.27;1690701;83;27531;-77
2022/03/12 07:54:37;;;;;;;108.92;47.70;;;;;;;-1.23;64.22;102437.09;1683205;84;25960;-77
2022/03/12 07:57:04;;;;;;;65.22;29.48;;;;;;;-1.09;63.75;102440.81;1682509;84;25886;-77
2022/03/12 07:59:31;;;;;;;51.10;23.80;;;;;;;-0.85;62.27;102441.50;1679509;84;26262;-77
2022/03/12 08:01:58;;;;;;;48.58;22.67;;;;;;;-0.85;62.27;102441.50;1691830;82;25923;-77
2022/03/12 08:04:26;;;;;;;114.00;67.60;;;;;;;-0.73;61.81;102439.65;1690197;82;28279;-76
2022/03/12 08:06:52;;;;;;;106.55;56.13;;;;;;;-0.66;61.91;102440.23;1693341;82;25805;-76
2022/03/12 08:09:18;;;;;;;47.27;23.75;;;;;;;-0.48;61.42;102449.89;1678990;83;26188;-77
2022/03/12 08:11:45;;;;;;;60.85;33.28;;;;;;;-0.43;60.80;102443.50;1681138;83;25839;-77
2022/03/12 08:14:17;;;;;;;47.03;21.97;;;;;;;-0.25;60.76;102446.56;1677006;83;26330;-77
2022/03/12 08:16:44;;;;;;;43.80;21.70;;;;;;;-0.14;60.65;102448.23;1681692;84;27569;-77
2022/03/12 08:19:10;;;;;;;49.93;30.30;;;;;;;0.02;60.15;102441.77;1696838;83;25911;-77
2022/03/12 08:21:37;;;;;;;39.85;19.82;;;;;;;0.02;60.15;102441.77;1696980;84;25847;-76
2022/03/12 08:24:05;;;;;;;41.45;18.15;;;;;;;0.20;59.60;102444.80;1691567;84;25978;-76
2022/03/12 08:26:34;;;;;;;40.23;19.57;;;;;;;0.31;59.26;102442.95;1666851;85;25807;-77
2022/03/12 08:29:00;;;;;;;36.15;19.92;;;;;;;0.36;59.09;102427.77;1693536;84;28304;-77
2022/03/12 08:31:27;;;;;;;35.00;18.10;;;;;;;0.47;58.47;102426.28;1660724;86;25805;-77
2022/03/12 08:33:53;;;;;;;36.05;19.48;;;;;;;0.54;58.28;102426.37;1650019;83;26081;-80
2022/03/12 08:36:19;;;;;;;34.63;16.00;;;;;;;0.63;58.15;102423.27;1651675;86;25763;-80
2022/03/12 08:38:47;;;;;;;29.12;13.60;;;;;;;0.72;57.59;102421.48;1664831;84;25891;-79
2022/03/12 08:41:15;;;;;;;28.52;13.80;;;;;;;0.84;56.58;102427.02;1676661;84;28363;-76
2022/03/12 08:43:41;;;;;;;29.52;13.28;;;;;;;0.93;56.30;102422.59;1667849;84;26444;-76
2022/03/12 08:46:08;;;;;;;27.62;13.20;;;;;;;1.05;55.79;102416.69;1653689;85;25905;-75
2022/03/12 08:48:35;;;;;;;33.60;14.68;;;;;;;1.16;55.17;102420.44;1670651;84;25748;-76
2022/03/12 08:51:03;;;;;;;30.75;14.05;;;;;;;1.26;55.05;102419.49;1647300;85;25966;-77
2022/03/12 08:53:30;;;;;;;31.45;17.42;;;;;;;1.35;54.83;102424.25;1641057;87;27475;-75
2022/03/12 08:55:59;;;;;;;29.55;14.87;;;;;;;1.44;54.63;102414.05;1698219;83;25985;-76
2022/03/12 08:58:25;;;;;;;34.73;14.60;;;;;;;1.55;54.65;102415.64;1698891;83;25825;-76
2022/03/12 09:00:53;;;;;;;29.15;13.78;;;;;;;1.67;53.96;102410.62;1694130;83;26594;-76
2022/03/12 09:03:21;;;;;;;30.10;14.83;;;;;;;1.76;53.42;102411.40;1669176;85;25757;-76
2022/03/12 09:05:51;;;;;;;31.97;15.35;;;;;;;1.80;52.81;102413.78;1674523;84;28301;-75
2022/03/12 09:08:18;;;;;;;23.20;11.95;;;;;;;1.89;52.57;102416.37;1696473;83;25765;-76
2022/03/12 09:10:46;;;;;;;23.62;11.73;;;;;;;1.95;51.87;102418.66;1696294;83;25781;-76
2022/03/12 09:13:15;;;;;;;26.95;12.20;;;;;;;2.03;52.08;102415.14;1696867;83;25785;-76
2022/03/12 09:15:42;;;;;;;26.05;12.53;;;;;;;2.15;51.65;102418.39;1693454;84;25787;-76
2022/03/12 09:18:10;;;;;;;31.82;14.78;;;;;;;2.26;51.91;102412.87;1693771;84;27454;-76
2022/03/12 09:20:47;;;;;;;29.52;13.43;;;;;;;2.34;51.34;102405.33;1699612;83;26128;-76
2022/03/12 09:23:17;;;;;;;28.83;12.43;;;;;;;2.43;51.25;102408.38;1693502;83;26628;-76
2022/03/12 09:25:44;;;;;;;25.75;12.60;;;;;;;2.53;50.31;102402.91;1693689;84;25492;-76
2022/03/12 09:28:12;;;;;;;26.60;12.98;;;;;;;2.58;50.35;102403.50;1694823;83;26507;-75
2022/03/12 09:30:38;;;;;;;22.77;12.13;;;;;;;2.67;49.71;102404.27;1678824;83;27484;-76
2022/03/12 09:33:07;;;;;;;26.35;13.15;;;;;;;2.71;49.60;102404.00;1676238;84;25801;-76
2022/03/12 09:35:34;;;;;;;22.85;12.20;;;;;;;2.75;49.45;102402.87;1700988;83;25884;-76
2022/03/12 09:38:02;;;;;;;25.75;13.83;;;;;;;2.79;49.03;102397.77;1695670;83;25821;-75
2022/03/12 09:40:30;;;;;;;28.15;13.00;;;;;;;2.84;48.75;102394.84;1691118;83;25994;-76
2022/03/12 09:42:57;;;;;;;24.72;11.73;;;;;;;2.91;48.81;102394.36;1695028;83;27472;-76
2022/03/12 09:45:24;;;;;;;22.70;11.78;;;;;;;2.97;48.92;102390.51;1698330;83;25740;-80
2022/03/12 09:47:51;;;;;;;18.17;10.38;;;;;;;3.05;47.43;102385.58;1669577;85;25892;-80
2022/03/12 09:50:18;;;;;;;22.58;9.95;;;;;;;3.13;48.34;102386.80;1668376;85;26235;-78
2022/03/12 09:52:45;;;;;;;19.05;8.68;;;;;;;3.23;47.66;102384.91;1640734;86;25798;-79
2022/03/12 09:55:11;;;;;;;21.40;9.28;;;;;;;3.34;47.94;102389.03;1694529;84;27482;-84
2022/03/12 09:57:37;;;;;;;23.15;10.93;;;;;;;3.38;47.12;102383.45;1693654;84;25914;-84
2022/03/12 10:00:06;;;;;;;22.13;10.53;;;;;;;3.41;47.55;102389.03;1686818;84;25953;-76
2022/03/12 10:02:34;;;;;;;21.00;11.22;;;;;;;3.49;48.04;102382.30;1693317;83;25867;-76
2022/03/12 10:05:00;;;;;;;17.60;9.45;;;;;;;3.56;47.05;102373.48;1696341;83;25839;-81
2022/03/12 10:07:27;;;;;;;15.03;8.98;;;;;;;3.61;46.74;102377.56;1685066;84;27492;-76
2022/03/12 10:09:53;;;;;;;18.32;8.00;;;;;;;3.67;46.65;102372.33;1696145;83;25900;-76
2022/03/12 10:12:20;;;;;;;13.30;6.90;;;;;;;3.70;46.11;102362.87;1695408;82;25765;-77
2022/03/12 10:14:48;;;;;;;14.65;7.75;;;;;;;3.76;45.96;102362.46;1691611;83;26188;-76
2022/03/12 10:17:17;;;;;;;36.45;19.25;;;;;;;3.87;46.21;102359.97;1689615;83;25904;-80
2022/03/12 10:19:47;;;;;;;66.07;36.88;;;;;;;3.95;45.39;102355.47;1684851;83;27672;-78
2022/03/12 10:22:14;;;;;;;34.35;18.92;;;;;;;3.99;45.50;102349.86;1685158;84;25927;-76
2022/03/12 10:24:41;;;;;;;97.60;52.45;;;;;;;4.06;45.45;102345.86;1686984;84;25827;-76
2022/03/12 10:27:10;;;;;;;115.70;62.15;;;;;;;4.10;44.80;102336.74;1686903;84;25746;-76
2022/03/12 10:29:38;;;;;;;199.02;105.78;;;;;;;4.20;45.19;102331.66;1687053;83;26011;-77
2022/03/12 10:32:27;;;;;;;39.58;23.55;;;;;;;4.25;44.48;102330.41;1664891;84;28066;-77
2022/03/12 10:34:59;;;;;;;17.50;11.12;;;;;;;4.24;44.04;102323.86;1620350;86;26188;-77
2022/03/12 10:37:31;;;;;;;12.10;7.25;;;;;;;4.24;43.96;102317.23;1648899;86;25846;-77
2022/03/12 10:40:23;;;;;;;14.23;7.42;;;;;;;4.30;43.54;102312.35;1662922;84;25464;-76
2022/03/12 10:43:13;;;;;;;17.52;9.78;;;;;;;4.36;43.58;102309.78;1688566;83;25939;-76
2022/03/12 10:45:43;;;;;;;12.55;8.25;;;;;;;4.42;42.94;102307.55;1685402;83;27472;-76
2022/03/12 10:48:10;;;;;;;12.82;6.58;;;;;;;4.50;43.25;102307.86;1686080;83;25884;-79
2022/03/12 10:50:45;;;;;;;12.10;6.90;;;;;;;4.57;43.09;102306.49;1686638;84;25939;-75
2022/03/12 10:53:14;;;;;;;16.37;8.18;;;;;;;4.62;43.13;102307.47;1688510;83;25835;-75
2022/03/12 10:55:44;;;;;;;12.68;6.20;;;;;;;4.66;42.39;102293.06;1691773;83;25797;-76
2022/03/12 10:58:26;;;;;;;19.45;6.83;;;;;;;4.74;42.84;102296.02;1691048;83;27712;-75
2022/03/12 11:00:56;;;;;;;11.00;5.78;;;;;;;4.82;42.69;102295.46;1694200;83;25771;-76
2022/03/12 11:03:26;;;;;;;13.17;6.30;;;;;;;4.84;42.82;102295.73;1686660;84;25790;-76
2022/03/12 11:05:55;;;;;;;13.83;7.28;;;;;;;4.90;41.50;102292.63;1693950;83;26392;-75
2022/03/12 11:08:26;;;;;;;16.20;8.60;;;;;;;4.95;42.22;102297.15;1694887;82;26672;-75
2022/03/12 11:11:15;;;;;;;19.02;8.75;;;;;;;5.01;41.24;102291.86;1701198;83;27477;-76
2022/03/12 11:13:50;;;;;;;17.45;8.03;;;;;;;5.00;41.17;102288.38;1696463;83;25784;-75
2022/03/12 11:16:27;;;;;;;20.90;7.95;;;;;;;5.02;41.75;102279.83;1699403;83;25999;-76
2022/03/12 11:19:11;;;;;;;13.98;6.75;;;;;;;5.09;41.29;102277.58;1700087;83;26054;-75